Time;durP1;ratioP1;P1;durP2;ratioP2;P2;SDS_P1;SDS_P2;PMS_P1;PMS_P2;Temp;Humidity;BMP_temperature;BMP_pressure;BME280_temperature;BME280_humidity;BME280_pressure;Samples;Min_cycle;Max_cycle;Signal;HPM_P1;HPM_P2
2022/12/27 09:22:27;;;;;;;0.10;0.10;;;5.70;99.90;;;;;;6159307;23;20084;-93
2022/12/27 09:24:53;;;;;;;0.10;0.10;;;;;;;;;;6133467;23;20010;-93
2022/12/27 09:27:19;;;;;;;0.00;0.00;;;;;;;;;;6134151;23;20033;-91
2022/12/27 09:29:45;;;;;;;0.00;0.00;;;;;;;;;;6131468;23;20308;-91
2022/12/27 09:32:11;;;;;;;0.10;0.10;;;;;;;;;;6131653;23;20016;-93
2022/12/27 11:46:57;;;;;;;0.10;0.10;;;7.50;99.90;;;;;;6200921;23;20008;-93
2022/12/27 11:49:30;;;;;;;0.10;0.10;;;7.50;99.90;;;;;;6185015;23;20021;-94
2022/12/27 11:51:56;;;;;;;0.10;0.10;;;;;;;;;;6161271;23;19993;-94
2022/12/27 11:55:05;;;;;;;0.10;0.10;;;7.30;99.90;;;;;;6185658;23;20004;-95
2022/12/27 11:57:50;;;;;;;0.00;0.00;;;7.30;99.90;;;;;;6096736;23;19995;-95
2022/12/27 12:00:18;;;;;;;0.10;0.10;;;7.40;99.90;;;;;;6094948;23;19998;-95
2022/12/27 12:02:59;;;;;;;0.10;0.10;;;7.40;99.90;;;;;;6179102;23;20001;-96
2022/12/27 12:05:43;;;;;;;;;;;7.40;99.90;;;;;;6182800;23;20024;-95
2022/12/27 12:08:46;;;;;;;0.10;0.10;;;7.30;99.90;;;;;;6182767;23;19889;-95
2022/12/27 12:11:38;;;;;;;0.10;0.10;;;7.20;99.90;;;;;;6183909;23;20000;-96
2022/12/27 12:14:41;;;;;;;0.10;0.10;;;7.10;99.90;;;;;;6180947;23;19989;-96
2022/12/27 12:17:34;;;;;;;0.10;0.10;;;7.00;99.90;;;;;;6181634;23;19993;-96
2022/12/27 12:23:25;;;;;;;0.10;0.10;;;6.80;99.90;;;;;;6210771;23;20044;-95
2022/12/27 12:26:09;;;;;;;0.10;0.10;;;6.70;99.90;;;;;;6183714;23;20009;-95
2022/12/27 12:32:08;;;;;;;0.10;0.10;;;6.70;99.90;;;;;;6212428;23;20020;-92
2022/12/27 12:34:34;;;;;;;0.10;0.10;;;;;;;;;;6185543;23;20020;-94
2022/12/27 12:37:25;;;;;;;0.10;0.10;;;6.80;99.90;;;;;;6185082;23;20422;-95
2022/12/27 12:40:16;;;;;;;0.00;0.00;;;6.80;99.90;;;;;;6184184;23;20093;-95
2022/12/27 12:42:51;;;;;;;0.10;0.10;;;6.80;99.90;;;;;;6178940;23;20015;-96
2022/12/27 12:45:17;;;;;;;0.10;0.10;;;;;;;;;;6181081;23;20088;-94
2022/12/27 12:47:58;;;;;;;0.10;0.10;;;7.00;99.90;;;;;;6181695;23;20035;-96
2022/12/27 12:50:31;;;;;;;0.10;0.10;;;7.00;99.90;;;;;;6175803;23;20009;-96
2022/12/27 12:53:28;;;;;;;0.10;0.10;;;7.10;99.90;;;;;;6183895;23;19993;-95
2022/12/27 12:56:16;;;;;;;0.10;0.10;;;7.20;99.90;;;;;;6185226;23;20009;-95
2022/12/27 12:59:21;;;;;;;0.10;0.10;;;7.10;99.90;;;;;;6181997;23;19997;-96
2022/12/27 13:02:16;;;;;;;0.10;0.10;;;6.70;99.90;;;;;;6138118;23;20021;-95
2022/12/27 13:04:56;;;;;;;0.10;0.10;;;7.20;99.90;;;;;;6182572;23;19989;-93
2022/12/27 13:07:54;;;;;;;0.10;0.10;;;7.20;99.90;;;;;;6184137;23;20048;-94
2022/12/27 13:10:44;;;;;;;0.10;0.10;;;7.20;99.90;;;;;;6181537;23;20013;-95
2022/12/27 13:13:12;;;;;;;;;;;7.20;99.90;;;;;;6183865;23;20013;-94
2022/12/27 13:15:54;;;;;;;0.10;0.10;;;7.10;99.90;;;;;;6184463;23;19911;-96
2022/12/27 13:18:20;;;;;;;0.10;0.10;;;;;;;;;;6182967;23;20012;-93
2022/12/27 13:21:12;;;;;;;0.10;0.10;;;7.10;99.90;;;;;;6180954;23;19997;-96
2022/12/27 13:24:22;;;;;;;0.00;0.00;;;7.20;99.90;;;;;;6184183;23;20009;-95
2022/12/27 13:27:14;;;;;;;0.10;0.10;;;7.00;99.90;;;;;;6183303;23;20069;-95
2022/12/27 13:30:01;;;;;;;0.10;0.10;;;7.00;99.90;;;;;;6184778;23;20005;-96
2022/12/27 13:36:02;;;;;;;0.10;0.10;;;7.10;99.90;;;;;;6210556;23;20069;-95
2022/12/27 13:38:52;;;;;;;0.10;0.10;;;7.10;99.90;;;;;;6183425;23;20005;-96
2022/12/27 13:41:21;;;;;;;;;;;7.10;99.90;;;;;;6186419;23;20001;-96
2022/12/27 13:44:06;;;;;;;0.10;0.10;;;7.10;99.90;;;;;;6185574;23;19916;-96
2022/12/27 13:47:18;;;;;;;0.10;0.10;;;7.10;99.90;;;;;;5124900;27;20400;-92
2022/12/27 13:50:12;;;;;;;0.10;0.10;;;7.10;99.90;;;;;;5103400;28;20021;-90
2022/12/27 13:53:16;;;;;;;0.08;0.08;;;7.10;99.90;;;;;;5107421;28;20024;-91
2022/12/27 13:55:42;;;;;;;0.10;0.10;;;;;;;;;;5092170;28;20031;-91
2022/12/27 15:45:12;;;;;;;0.10;0.10;;;;;;;;;;5016780;28;20045;-91
2022/12/27 15:48:19;;;;;;;0.10;0.10;;;6.20;99.90;;;;;;5038502;28;20041;-93
2022/12/27 15:51:32;;;;;;;0.10;0.10;;;6.20;99.90;;;;;;5033421;28;20026;-93
2022/12/27 16:51:48;;;;;;;0.05;0.05;;;5.80;99.90;;;;;;5051608;28;20049;-91
2022/12/27 16:54:56;;;;;;;0.10;0.10;;;5.90;99.90;;;;;;5029178;28;20069;-92
2022/12/27 16:57:25;;;;;;;0.10;0.10;;;5.90;99.90;;;;;;5023469;28;20025;-93
2022/12/27 16:59:56;;;;;;;0.10;0.10;;;5.90;99.90;;;;;;5014843;28;20030;-94
2022/12/27 17:02:37;;;;;;;0.10;0.10;;;5.90;99.90;;;;;;5013229;28;20034;-94
2022/12/27 17:05:23;;;;;;;0.10;0.10;;;5.90;99.90;;;;;;5017065;28;20108;-93
2022/12/27 17:07:53;;;;;;;0.10;0.10;;;5.90;99.90;;;;;;5012225;28;20022;-94
2022/12/27 17:10:40;;;;;;;0.10;0.10;;;6.00;99.90;;;;;;5006351;28;20484;-94
2022/12/27 17:13:33;;;;;;;0.10;0.10;;;6.00;99.90;;;;;;5004033;28;20040;-94
2022/12/27 17:16:20;;;;;;;0.10;0.10;;;6.00;99.90;;;;;;5004670;28;20025;-94
2022/12/27 17:18:50;;;;;;;0.10;0.10;;;6.00;99.90;;;;;;5009943;28;20041;-93
2022/12/27 17:21:16;;;;;;;0.10;0.10;;;;;;;;;;5002508;28;20036;-94
2022/12/27 17:23:47;;;;;;;0.00;0.00;;;6.00;99.90;;;;;;5023997;28;20109;-92
2022/12/27 17:26:43;;;;;;;0.10;0.10;;;6.10;99.90;;;;;;5016032;28;20037;-93
2022/12/27 17:29:36;;;;;;;0.10;0.10;;;6.10;99.90;;;;;;5029944;28;20052;-91
2022/12/27 17:32:08;;;;;;;0.10;0.10;;;6.10;99.90;;;;;;5007232;28;20030;-93
2022/12/27 17:34:57;;;;;;;0.10;0.10;;;6.20;99.90;;;;;;5003467;28;20034;-92
2022/12/27 17:37:56;;;;;;;0.10;0.10;;;6.30;99.90;;;;;;5020039;28;20121;-93
2022/12/27 17:40:56;;;;;;;0.10;0.10;;;6.30;99.90;;;;;;4977930;28;20041;-93
2022/12/27 17:46:45;;;;;;;0.10;0.10;;;6.40;99.90;;;;;;5020157;28;20037;-93
2022/12/27 17:49:10;;;;;;;0.10;0.10;;;;;;;;;;5019413;28;20112;-94
2022/12/27 17:51:41;;;;;;;0.10;0.10;;;6.60;99.90;;;;;;5025100;28;20133;-94
2022/12/27 17:59:58;;;;;;;0.00;0.00;;;;;;;;;;5019838;28;20053;-93
2022/12/27 18:02:34;;;;;;;0.03;0.03;;;6.60;99.90;;;;;;5002902;28;20062;-93
2022/12/27 18:05:11;;;;;;;0.10;0.10;;;6.70;99.90;;;;;;4998842;28;20094;-92
2022/12/27 18:07:38;;;;;;;0.10;0.10;;;6.80;99.90;;;;;;5006648;28;20089;-93
2022/12/27 18:10:21;;;;;;;0.10;0.10;;;6.80;99.90;;;;;;4989619;28;20053;-92
2022/12/27 18:13:00;;;;;;;0.10;0.10;;;6.90;99.90;;;;;;5001044;28;20018;-93
2022/12/27 18:15:28;;;;;;;0.10;0.10;;;6.90;99.90;;;;;;4992265;28;20076;-93
2022/12/27 18:17:59;;;;;;;0.00;0.00;;;6.90;99.90;;;;;;5000579;28;20037;-92
2022/12/27 18:20:25;;;;;;;0.10;0.10;;;;;;;;;;4995215;28;20537;-92
2022/12/27 18:22:52;;;;;;;0.10;0.10;;;;;;;;;;5015792;28;20088;-92
2022/12/27 18:25:24;;;;;;;0.10;0.10;;;7.00;99.90;;;;;;4990533;28;20049;-91
2022/12/27 18:28:07;;;;;;;0.10;0.10;;;7.10;99.90;;;;;;5003491;28;20026;-92
2022/12/27 18:30:41;;;;;;;0.10;0.10;;;7.00;99.90;;;;;;5007827;28;20038;-92
2022/12/27 18:33:11;;;;;;;0.10;0.10;;;7.00;99.90;;;;;;5008599;28;20049;-92
2022/12/27 18:35:37;;;;;;;0.10;0.10;;;;;;;;;;5016065;28;20835;-92
2022/12/27 18:38:06;;;;;;;0.10;0.10;;;7.10;99.90;;;;;;5016010;28;20124;-93
2022/12/27 18:40:32;;;;;;;0.10;0.10;;;;;;;;;;5015629;28;20054;-93
2022/12/27 18:42:58;;;;;;;0.10;0.10;;;;;;;;;;5013503;28;20117;-92
2022/12/27 18:45:28;;;;;;;0.10;0.10;;;7.10;99.90;;;;;;5012905;28;20367;-92
2022/12/27 18:47:55;;;;;;;0.10;0.10;;;7.10;99.90;;;;;;5023491;28;20093;-93
2022/12/27 18:50:23;;;;;;;0.00;0.00;;;7.10;99.90;;;;;;5012342;28;20030;-92
2022/12/27 18:53:05;;;;;;;0.10;0.10;;;7.10;99.90;;;;;;5017492;28;20085;-93
2022/12/27 18:55:31;;;;;;;0.10;0.10;;;;;;;;;;5018777;28;20050;-92
2022/12/27 18:58:13;;;;;;;0.10;0.10;;;7.10;99.90;;;;;;5028379;28;20057;-92
2022/12/27 19:01:04;;;;;;;0.10;0.10;;;7.20;99.90;;;;;;5006727;28;20042;-93
2022/12/27 19:03:30;;;;;;;0.10;0.10;;;;;;;;;;5012620;28;20033;-94
2022/12/27 19:06:00;;;;;;;0.10;0.10;;;7.20;99.90;;;;;;5035725;28;20030;-93
2022/12/27 19:08:32;;;;;;;0.10;0.10;;;7.30;99.90;;;;;;5033192;28;20048;-93
2022/12/27 19:10:58;;;;;;;0.05;0.05;;;;;;;;;;5001415;28;20030;-93
2022/12/27 19:13:45;;;;;;;0.10;0.10;;;7.30;99.90;;;;;;5036312;28;20116;-92
2022/12/27 19:16:25;;;;;;;0.10;0.10;;;7.20;99.90;;;;;;5030148;28;20057;-92
2022/12/27 19:18:58;;;;;;;0.10;0.10;;;7.20;99.90;;;;;;5029708;28;20026;-94
2022/12/27 19:21:34;;;;;;;0.10;0.10;;;7.20;99.90;;;;;;5013965;28;20042;-93
2022/12/27 19:24:38;;;;;;;0.10;0.10;;;7.20;99.90;;;;;;5014648;28;20053;-92
2022/12/27 19:27:22;;;;;;;0.10;0.10;;;7.20;99.90;;;;;;4972691;28;20054;-92
2022/12/27 19:29:52;;;;;;;0.10;0.10;;;7.20;99.90;;;;;;4945087;28;20027;-88
2022/12/27 19:32:25;;;;;;;0.10;0.10;;;7.20;99.90;;;;;;4982001;28;20034;-91
2022/12/27 19:34:54;;;;;;;0.10;0.10;;;7.20;99.90;;;;;;5007421;28;20026;-89
2022/12/27 19:37:20;;;;;;;0.10;0.10;;;;;;;;;;5002540;28;20077;-89
2022/12/27 19:39:47;;;;;;;0.10;0.10;;;7.20;99.90;;;;;;5006071;28;20087;-92
2022/12/27 19:42:25;;;;;;;0.10;0.10;;;7.20;99.90;;;;;;4993877;28;20515;-91
2022/12/27 19:44:51;;;;;;;0.10;0.10;;;;;;;;;;4998528;28;20087;-90
2022/12/27 19:47:17;;;;;;;0.10;0.10;;;;;;;;;;5017843;28;20064;-90
2022/12/27 19:49:42;;;;;;;0.10;0.10;;;7.30;99.90;;;;;;4987186;28;20025;-91
2022/12/27 19:52:18;;;;;;;0.10;0.10;;;7.00;99.90;;;;;;5009614;28;20046;-91
2022/12/27 19:54:44;;;;;;;0.10;0.10;;;;;;;;;;4990652;28;20045;-93
2022/12/27 19:57:11;;;;;;;0.10;0.10;;;7.20;99.90;;;;;;5000499;28;20033;-93
2022/12/27 19:59:37;;;;;;;0.10;0.10;;;;;;;;;;4992412;28;20100;-93
2022/12/27 20:02:03;;;;;;;0.10;0.10;;;;;;;;;;4996218;28;20030;-92
2022/12/27 20:04:29;;;;;;;0.13;0.13;;;;;;;;;;5003296;28;20026;-92
2022/12/27 20:06:55;;;;;;;0.10;0.10;;;;;;;;;;4990589;28;20033;-92
2022/12/27 20:09:21;;;;;;;0.10;0.10;;;;;;;;;;4996870;28;20026;-91
2022/12/27 20:11:50;;;;;;;0.10;0.10;;;7.10;99.90;;;;;;4995814;28;20068;-92
2022/12/27 20:14:16;;;;;;;0.10;0.10;;;;;;;;;;4994053;28;20032;-92
2022/12/27 20:16:42;;;;;;;0.10;0.10;;;;;;;;;;5016889;28;20501;-91
2022/12/27 20:19:15;;;;;;;0.10;0.10;;;7.10;99.90;;;;;;4989970;28;20054;-91
2022/12/27 20:21:41;;;;;;;0.10;0.10;;;;;;;;;;4994736;28;20124;-91
2022/12/27 20:24:10;;;;;;;0.10;0.10;;;7.10;99.90;;;;;;4985959;28;20544;-92
2022/12/27 20:26:36;;;;;;;0.20;0.20;;;;;;;;;;4996059;28;20968;-92
2022/12/27 20:29:02;;;;;;;0.10;0.10;;;;;;;;;;5005345;28;20480;-92
2022/12/27 20:31:28;;;;;;;0.10;0.10;;;;;;;;;;4996548;28;20032;-90
2022/12/27 20:33:55;;;;;;;0.10;0.10;;;;;;;;;;5006625;28;20052;-92
2022/12/27 20:36:22;;;;;;;0.10;0.10;;;6.70;99.90;;;;;;5004675;28;20038;-91
2022/12/27 20:38:48;;;;;;;0.10;0.10;;;;;;;;;;4997812;28;20133;-91
2022/12/27 20:41:17;;;;;;;0.10;0.10;;;6.60;99.90;;;;;;4991518;28;20679;-90
2022/12/27 20:43:43;;;;;;;0.10;0.10;;;;;;;;;;4991343;28;20248;-91
2022/12/27 20:46:14;;;;;;;0.03;0.03;;;6.50;99.90;;;;;;4991872;28;20091;-93
2022/12/27 20:48:42;;;;;;;0.10;0.10;;;6.30;99.90;;;;;;4998767;28;20014;-95
2022/12/27 20:51:15;;;;;;;0.10;0.10;;;6.30;99.90;;;;;;5012993;28;20041;-93
2022/12/27 20:53:41;;;;;;;0.05;0.05;;;;;;;;;;5006633;28;20488;-93
2022/12/27 20:56:07;;;;;;;0.10;0.10;;;;;;;;;;5016187;28;20026;-94
2022/12/27 20:58:34;;;;;;;0.10;0.10;;;;;;;;;;5013944;28;20053;-93
2022/12/27 21:01:12;;;;;;;0.10;0.10;;;6.20;99.90;;;;;;5007899;28;20006;-91
2022/12/27 21:03:38;;;;;;;0.10;0.10;;;6.20;99.90;;;;;;5012309;28;20038;-93
2022/12/27 21:06:12;;;;;;;0.10;0.10;;;6.20;99.90;;;;;;5005228;28;20041;-92
2022/12/27 21:08:41;;;;;;;0.10;0.10;;;;;;;;;;5019793;28;20052;-94
2022/12/27 21:11:10;;;;;;;0.08;0.08;;;6.10;99.90;;;;;;5002374;28;20033;-93
2022/12/27 21:13:37;;;;;;;0.00;0.00;;;6.10;99.90;;;;;;5003290;28;20102;-92
2022/12/27 21:16:04;;;;;;;0.10;0.10;;;;;;;;;;4997825;28;20068;-92
2022/12/27 21:18:31;;;;;;;0.10;0.10;;;6.00;99.90;;;;;;5001567;28;20037;-92
2022/12/27 21:21:02;;;;;;;0.20;0.20;;;6.00;99.90;;;;;;5003263;28;20032;-93
2022/12/27 21:23:30;;;;;;;0.15;0.15;;;5.90;99.90;;;;;;4998281;28;20021;-92
2022/12/27 21:26:48;;;;;;;0.10;0.10;;;5.90;99.90;;;;;;4992185;28;20026;-91
2022/12/27 21:29:15;;;;;;;0.10;0.10;;;;;;;;;;4975804;28;20030;-91
2022/12/27 21:31:41;;;;;;;0.10;0.10;;;;;;;;;;5011468;28;20148;-89
2022/12/27 21:34:07;;;;;;;0.10;0.10;;;;;;;;;;4996031;28;20110;-90
2022/12/27 21:36:33;;;;;;;0.10;0.10;;;5.80;99.90;;;;;;4999105;28;20061;-91
2022/12/27 21:39:00;;;;;;;0.10;0.10;;;;;;;;;;4990315;28;20045;-92
2022/12/27 21:41:35;;;;;;;0.10;0.10;;;5.80;99.90;;;;;;4991407;28;20045;-92
2022/12/27 21:44:01;;;;;;;0.10;0.10;;;;;;;;;;4994461;28;20034;-92
2022/12/27 21:46:29;;;;;;;0.10;0.10;;;5.70;99.90;;;;;;4992961;28;20029;-94
2022/12/27 21:49:00;;;;;;;0.00;0.00;;;5.80;99.90;;;;;;4990357;28;20030;-92
2022/12/27 21:51:27;;;;;;;0.10;0.10;;;5.70;99.90;;;;;;4994992;28;20128;-91
2022/12/27 21:53:53;;;;;;;0.10;0.10;;;;;;;;;;4997180;28;20030;-92
2022/12/27 21:56:19;;;;;;;0.10;0.10;;;;;;;;;;4990292;28;20295;-91
2022/12/27 21:58:46;;;;;;;0.10;0.10;;;;;;;;;;4993065;28;20318;-92
2022/12/27 22:01:20;;;;;;;0.10;0.10;;;5.60;99.90;;;;;;5020409;28;20030;-95
2022/12/27 22:03:50;;;;;;;0.10;0.10;;;5.60;99.90;;;;;;5014752;28;20060;-94
2022/12/27 22:06:29;;;;;;;0.10;0.10;;;5.60;99.90;;;;;;5012956;28;20014;-95
2022/12/27 22:08:59;;;;;;;0.10;0.10;;;5.60;99.90;;;;;;5021732;28;20014;-96
2022/12/27 22:11:26;;;;;;;0.10;0.10;;;5.60;99.90;;;;;;5022300;28;20025;-94
2022/12/27 22:13:52;;;;;;;0.10;0.10;;;;;;;;;;5015353;28;20037;-95
2022/12/27 22:16:22;;;;;;;0.00;0.00;;;5.50;99.90;;;;;;5034328;28;20042;-94
2022/12/27 22:18:49;;;;;;;0.10;0.10;;;5.60;99.90;;;;;;5026273;28;20022;-96
2022/12/27 22:21:23;;;;;;;0.10;0.10;;;5.60;99.90;;;;;;5021042;28;20010;-95
2022/12/27 22:23:50;;;;;;;0.10;0.10;;;5.60;99.90;;;;;;5017587;28;20070;-95
2022/12/27 22:26:21;;;;;;;0.10;0.10;;;5.60;99.90;;;;;;5016779;28;20017;-95
2022/12/27 22:28:48;;;;;;;0.10;0.10;;;;;;;;;;5020497;28;20018;-94
2022/12/27 22:31:19;;;;;;;0.10;0.10;;;5.60;99.90;;;;;;5017796;28;20022;-95
2022/12/27 22:33:50;;;;;;;0.10;0.10;;;5.60;99.90;;;;;;5017134;28;20014;-94
2022/12/27 22:36:25;;;;;;;0.10;0.10;;;5.60;99.90;;;;;;5016768;28;20025;-94
2022/12/27 22:38:53;;;;;;;0.10;0.10;;;;;;;;;;5020170;28;20033;-94
2022/12/27 22:41:23;;;;;;;0.10;0.10;;;5.70;99.90;;;;;;5024736;28;20592;-95
2022/12/27 22:44:03;;;;;;;0.00;0.00;;;5.70;99.90;;;;;;5032606;28;20010;-95
2022/12/27 22:46:32;;;;;;;0.10;0.10;;;5.70;99.90;;;;;;5019052;28;20020;-95
2022/12/27 22:48:59;;;;;;;0.00;0.00;;;5.70;99.90;;;;;;5016797;28;20026;-95
2022/12/27 22:51:32;;;;;;;0.10;0.10;;;5.80;99.90;;;;;;5022549;28;20009;-95
2022/12/27 22:54:00;;;;;;;0.10;0.10;;;5.70;99.90;;;;;;5017521;28;20041;-92
2022/12/27 22:56:30;;;;;;;0.10;0.10;;;5.70;99.90;;;;;;5018203;28;20022;-91
2022/12/27 22:58:58;;;;;;;;;;;6.90;99.90;;;;;;5018948;28;20029;-95
2022/12/27 23:01:31;;;;;;;0.10;0.10;;;5.60;99.90;;;;;;5016929;28;19913;-95
2022/12/27 23:11:46;;;;;;;0.10;0.10;;;;;;;;;;5156178;22;20049;-94
2022/12/27 23:17:22;;;;;;;0.10;0.10;;;;;;;;;;5045122;28;20028;-94
2022/12/27 23:19:49;;;;;;;0.10;0.10;;;;;;;;;;5053642;28;20065;-95
2022/12/27 23:22:19;;;;;;;0.10;0.10;;;5.70;99.90;;;;;;5048055;28;20006;-96
